createdAt,value
2022-12-04T00:02:16.313Z,40.35
2022-12-04T00:05:09.579Z,40.19
2022-12-04T00:08:00.507Z,40.20
2022-12-04T00:10:51.046Z,40.21
2022-12-04T00:13:43.076Z,40.32
2022-12-04T00:16:33.540Z,40.30
2022-12-04T00:19:23.905Z,40.29
2022-12-04T00:22:14.368Z,40.21
2022-12-04T00:25:05.556Z,40.26
2022-12-04T00:27:55.875Z,40.30
2022-12-04T00:30:46.326Z,40.36
2022-12-04T00:33:36.929Z,40.21
2022-12-04T00:36:28.011Z,40.38
2022-12-04T00:39:18.322Z,40.43
2022-12-04T00:42:08.727Z,40.31
2022-12-04T00:44:59.092Z,40.35
2022-12-04T00:47:49.458Z,40.29
2022-12-04T00:50:41.182Z,40.35
2022-12-04T00:53:31.602Z,40.36
2022-12-04T00:56:23.419Z,40.43
2022-12-04T00:59:14.111Z,40.33
2022-12-04T01:02:04.872Z,40.47
2022-12-04T01:04:55.227Z,40.43
2022-12-04T01:07:45.561Z,40.41
2022-12-04T01:10:37.351Z,40.38
2022-12-04T01:13:27.833Z,40.52
2022-12-04T01:16:20.050Z,40.40
2022-12-04T01:19:12.038Z,40.43
2022-12-04T01:22:03.101Z,40.26
2022-12-04T01:24:56.991Z,40.49
2022-12-04T01:27:47.314Z,40.36
2022-12-04T01:30:38.021Z,40.38
2022-12-04T01:33:29.400Z,40.40
2022-12-04T01:36:21.670Z,40.39
2022-12-04T01:39:12.079Z,40.45
2022-12-04T01:42:02.765Z,40.41
2022-12-04T01:45:41.134Z,40.60
2022-12-04T01:48:32.792Z,40.42
2022-12-04T01:51:25.694Z,40.58
2022-12-04T01:54:20.884Z,40.41
2022-12-04T01:57:14.965Z,40.43
2022-12-04T02:00:10.606Z,40.48
2022-12-04T02:03:01.364Z,40.41
2022-12-04T02:05:51.655Z,40.30
2022-12-04T02:08:41.959Z,40.33
2022-12-04T02:11:40.108Z,40.31
2022-12-04T02:14:39.736Z,40.52
2022-12-04T02:17:34.144Z,40.22
2022-12-04T02:20:31.116Z,40.28
2022-12-04T02:24:01.448Z,40.41
2022-12-04T02:26:53.981Z,40.22
2022-12-04T02:29:49.572Z,40.45
2022-12-04T02:32:43.552Z,40.37
2022-12-04T02:35:36.475Z,40.38
2022-12-04T02:38:29.140Z,40.43
2022-12-04T02:41:21.779Z,40.22
2022-12-04T02:44:14.275Z,40.45
2022-12-04T02:47:07.188Z,40.32
2022-12-04T02:50:00.088Z,40.35
2022-12-04T02:52:52.603Z,40.38
2022-12-04T02:55:45.425Z,40.38
2022-12-04T02:58:37.850Z,40.39
2022-12-04T03:01:31.587Z,40.35
2022-12-04T03:04:23.882Z,40.37
2022-12-04T03:07:16.883Z,40.19
2022-12-04T03:10:12.075Z,40.35
2022-12-04T03:13:05.318Z,40.35
2022-12-04T03:15:58.868Z,40.36
2022-12-04T03:18:52.423Z,40.27
2022-12-04T03:21:46.306Z,40.26
2022-12-04T03:24:40.567Z,40.23
2022-12-04T03:27:34.983Z,40.30
2022-12-04T03:30:25.709Z,40.32
2022-12-04T03:33:18.592Z,40.34
2022-12-04T03:36:12.921Z,40.27
2022-12-04T03:39:08.491Z,40.29
2022-12-04T03:42:02.213Z,40.32
2022-12-04T03:44:57.870Z,40.28
2022-12-04T03:47:53.323Z,40.32
2022-12-04T03:50:45.620Z,40.31
2022-12-04T03:53:39.562Z,40.28
2022-12-04T03:56:32.385Z,40.44
2022-12-04T03:59:26.359Z,40.41
2022-12-04T04:02:19.425Z,40.26
2022-12-04T04:05:11.204Z,40.32
2022-12-04T04:08:18.851Z,40.36
2022-12-04T04:11:13.521Z,40.25
2022-12-04T04:14:24.083Z,40.20
2022-12-04T04:17:38.469Z,40.25
2022-12-04T04:20:53.252Z,40.29
2022-12-04T04:24:05.129Z,40.21
2022-12-04T04:26:55.798Z,40.23
2022-12-04T04:29:52.022Z,40.15
2022-12-04T04:32:48.361Z,40.38
2022-12-04T04:35:43.048Z,40.33
2022-12-04T04:38:36.125Z,40.30
2022-12-04T04:41:30.195Z,40.18
2022-12-04T04:44:24.859Z,40.41
2022-12-04T04:47:20.170Z,40.38
2022-12-04T04:50:11.603Z,40.39
2022-12-04T04:53:05.068Z,40.14
2022-12-04T04:55:55.360Z,40.31
2022-12-04T04:58:45.721Z,40.39
2022-12-04T05:01:36.406Z,40.15
2022-12-04T05:04:27.504Z,40.37
2022-12-04T05:07:17.834Z,40.32
2022-12-04T05:10:11.174Z,40.44
2022-12-04T05:13:01.497Z,40.32
2022-12-04T05:15:59.496Z,40.36
2022-12-04T05:19:04.779Z,40.26
2022-12-04T05:21:56.500Z,40.09
2022-12-04T05:24:46.810Z,40.23
2022-12-04T05:27:37.155Z,40.21
2022-12-04T05:30:27.505Z,40.31
2022-12-04T05:33:17.778Z,40.22
2022-12-04T05:36:10.086Z,40.35
2022-12-04T05:39:00.784Z,40.13
2022-12-04T05:41:51.808Z,40.25
2022-12-04T05:44:42.138Z,40.39
2022-12-04T05:47:32.882Z,40.25
2022-12-04T05:50:23.575Z,40.14
2022-12-04T05:53:14.334Z,40.26
2022-12-04T05:56:05.681Z,40.22
2022-12-04T05:58:55.967Z,40.32
2022-12-04T06:01:46.373Z,40.40
2022-12-04T06:04:38.899Z,40.32
2022-12-04T06:07:29.247Z,40.30
2022-12-04T06:10:20.236Z,40.23
2022-12-04T06:13:10.950Z,40.26
2022-12-04T06:16:01.308Z,40.26
2022-12-04T06:18:52.850Z,40.26
2022-12-04T06:21:44.225Z,40.14
2022-12-04T06:24:34.889Z,40.34
2022-12-04T06:27:27.969Z,40.24
2022-12-04T06:30:19.242Z,40.42
2022-12-04T06:33:09.543Z,40.28
2022-12-04T06:36:03.723Z,40.38
2022-12-04T06:38:55.990Z,40.31
2022-12-04T06:41:47.303Z,40.33
2022-12-04T06:44:37.678Z,40.40
2022-12-04T06:47:27.993Z,40.27
2022-12-04T06:50:18.621Z,40.43
2022-12-04T06:53:08.956Z,40.43
2022-12-04T06:56:01.072Z,40.29
2022-12-04T06:58:52.891Z,40.37
2022-12-04T07:01:43.325Z,40.39
2022-12-04T07:04:33.664Z,40.35
2022-12-04T07:07:24.043Z,40.37
2022-12-04T07:10:14.859Z,40.43
2022-12-04T07:13:05.823Z,40.54
2022-12-04T07:15:56.203Z,40.37
2022-12-04T07:18:46.573Z,40.50
2022-12-04T07:21:36.921Z,40.50
2022-12-04T07:24:30.365Z,40.54
2022-12-04T07:27:20.718Z,40.46
2022-12-04T07:30:15.847Z,40.41
2022-12-04T07:33:06.727Z,40.54
2022-12-04T07:35:57.929Z,40.44
2022-12-04T07:38:48.285Z,40.48
2022-12-04T07:41:38.702Z,40.44
2022-12-04T07:44:32.178Z,40.42
2022-12-04T07:51:46.268Z,40.53
2022-12-04T07:55:10.679Z,40.58
2022-12-04T07:58:45.626Z,40.49
2022-12-04T08:02:28.193Z,40.39
2022-12-04T08:06:24.545Z,40.82
2022-12-04T08:10:01.742Z,40.75
2022-12-04T08:22:00.676Z,40.99
2022-12-04T08:24:51.335Z,40.73
2022-12-04T08:27:47.734Z,41.04
2022-12-04T08:30:38.698Z,41.08
2022-12-04T08:33:29.544Z,40.92
2022-12-04T08:36:21.127Z,40.98
2022-12-04T08:39:12.754Z,41.05
2022-12-04T08:42:03.192Z,41.25
2022-12-04T08:44:53.957Z,41.60
2022-12-04T08:47:49.215Z,41.62
2022-12-04T08:50:46.731Z,41.50
2022-12-04T08:53:37.579Z,41.86
2022-12-04T08:56:28.404Z,41.85
2022-12-04T08:59:18.822Z,41.90
2022-12-04T09:02:12.408Z,41.96
2022-12-04T09:05:02.951Z,42.06
2022-12-04T09:07:53.365Z,42.25
2022-12-04T09:10:43.852Z,42.35
2022-12-04T09:13:34.485Z,42.39
2022-12-04T09:16:25.746Z,42.59
2022-12-04T09:19:16.594Z,42.69
2022-12-04T09:22:06.998Z,42.72
2022-12-04T09:24:57.547Z,42.84
2022-12-04T09:27:47.936Z,42.81
2022-12-04T09:30:38.670Z,42.67
2022-12-04T09:33:30.118Z,42.63
2022-12-04T09:36:20.622Z,42.78
2022-12-04T09:39:11.748Z,42.71
2022-12-04T09:42:28.237Z,42.82
2022-12-04T09:45:20.529Z,42.82
2022-12-04T09:48:11.323Z,42.94
2022-12-04T09:51:01.757Z,42.77
2022-12-04T09:53:54.802Z,42.60
2022-12-04T09:56:47.517Z,42.71
2022-12-04T09:59:37.911Z,42.78
2022-12-04T10:02:37.366Z,42.75
2022-12-04T10:05:42.472Z,42.69
2022-12-04T10:08:36.931Z,42.73
2022-12-04T10:11:45.875Z,42.63
2022-12-04T10:14:53.043Z,42.71
2022-12-04T10:17:59.846Z,42.66
2022-12-04T10:21:01.466Z,42.67
2022-12-04T10:23:58.903Z,42.93
2022-12-04T10:26:49.752Z,42.68
2022-12-04T10:29:40.414Z,42.71
2022-12-04T10:32:32.716Z,42.93
2022-12-04T10:35:25.521Z,42.76
2022-12-04T10:38:23.733Z,42.83
2022-12-04T10:41:17.809Z,42.83
2022-12-04T10:44:08.820Z,42.89
2022-12-04T10:47:01.891Z,42.71
2022-12-04T10:49:55.376Z,42.73
2022-12-04T10:52:45.935Z,42.75
2022-12-04T10:55:37.879Z,42.66
2022-12-04T10:58:29.657Z,42.79
2022-12-04T11:01:21.765Z,42.65
2022-12-04T11:04:24.176Z,42.71
2022-12-04T11:07:20.906Z,42.68
2022-12-04T11:10:22.667Z,42.69
2022-12-04T11:13:17.599Z,42.76
2022-12-04T11:16:30.252Z,42.53
2022-12-04T11:19:25.936Z,42.57
2022-12-04T11:22:22.842Z,42.56
2022-12-04T11:25:17.874Z,42.74
2022-12-04T11:28:43.965Z,42.51
2022-12-04T11:32:25.389Z,42.64
2022-12-04T11:35:46.339Z,42.47
2022-12-04T11:39:10.759Z,42.34
2022-12-04T11:42:42.253Z,42.52
2022-12-04T11:46:25.033Z,42.51
2022-12-04T11:49:43.602Z,42.28
2022-12-04T11:52:55.313Z,42.45
2022-12-04T11:56:25.185Z,42.32
2022-12-04T11:59:51.684Z,42.30
2022-12-04T12:03:20.247Z,42.43
2022-12-04T12:06:53.221Z,42.46
2022-12-04T12:10:02.091Z,42.40
2022-12-04T12:13:18.493Z,42.40
2022-12-04T12:16:24.450Z,42.33
2022-12-04T12:19:59.786Z,42.38
2022-12-04T12:23:19.100Z,42.53
2022-12-04T12:26:26.176Z,42.58
2022-12-04T12:30:02.521Z,42.70
2022-12-04T12:33:24.728Z,42.64
2022-12-04T12:37:01.081Z,42.60
2022-12-04T12:40:05.770Z,42.61
2022-12-04T12:43:28.526Z,42.65
2022-12-04T12:46:33.558Z,42.84
2022-12-04T12:49:31.549Z,43.04
2022-12-04T12:52:32.253Z,43.08
2022-12-04T12:55:41.555Z,43.26
2022-12-04T12:58:50.961Z,43.51
2022-12-04T13:02:16.056Z,43.26
2022-12-04T13:05:23.385Z,43.36
2022-12-04T13:08:35.552Z,43.37
2022-12-04T13:11:59.220Z,43.30
2022-12-04T13:15:21.978Z,43.15
2022-12-04T13:18:48.542Z,43.08
2022-12-04T13:22:30.431Z,43.48
2022-12-04T13:26:57.955Z,43.36
2022-12-04T13:30:05.605Z,43.29
2022-12-04T13:34:01.159Z,43.16
2022-12-04T13:37:22.846Z,43.21
2022-12-04T13:40:38.450Z,43.28
2022-12-04T13:43:37.841Z,43.28
2022-12-04T13:46:35.152Z,43.12
2022-12-04T13:49:31.312Z,43.22
2022-12-04T13:52:25.632Z,43.47
2022-12-04T13:55:32.409Z,43.62
2022-12-04T13:58:32.793Z,43.73
2022-12-04T14:01:30.473Z,43.88
2022-12-04T14:04:34.070Z,44.21
2022-12-04T14:07:32.228Z,44.25
2022-12-04T14:10:38.401Z,44.63
2022-12-04T14:13:43.416Z,44.65
2022-12-04T14:16:38.983Z,44.39
2022-12-04T14:19:37.080Z,44.75
2022-12-04T14:22:40.472Z,44.74
2022-12-04T14:25:38.503Z,44.75
2022-12-04T14:28:43.499Z,44.73
2022-12-04T14:32:17.093Z,44.63
2022-12-04T14:39:34.901Z,44.45
2022-12-04T14:43:09.573Z,44.58
2022-12-04T14:46:18.399Z,44.39
2022-12-04T14:50:20.359Z,44.31
2022-12-04T14:54:21.859Z,44.33
2022-12-04T14:57:47.004Z,44.62
2022-12-04T15:01:08.457Z,44.31
2022-12-04T15:04:27.973Z,44.25
2022-12-04T15:07:53.490Z,44.42
2022-12-04T15:11:23.246Z,44.22
2022-12-04T15:14:32.649Z,44.35
2022-12-04T15:17:35.678Z,44.35
2022-12-04T15:20:54.447Z,44.33
2022-12-04T15:23:49.405Z,44.27
2022-12-04T15:26:48.580Z,44.43
2022-12-04T15:29:54.416Z,44.35
2022-12-04T15:33:31.297Z,44.21
2022-12-04T15:37:14.322Z,44.18
2022-12-04T15:40:39.033Z,44.21
2022-12-04T15:43:55.581Z,44.32
2022-12-04T15:47:28.234Z,44.23
2022-12-04T15:50:56.429Z,44.23
2022-12-04T15:53:59.218Z,44.39
2022-12-04T15:57:14.987Z,44.42
2022-12-04T16:00:47.379Z,44.44
2022-12-04T16:04:22.919Z,44.23
2022-12-04T16:12:30.453Z,44.46
2022-12-04T16:15:51.713Z,44.06
2022-12-04T16:19:21.099Z,44.31
2022-12-04T16:22:50.230Z,44.18
2022-12-04T16:26:47.738Z,44.14
2022-12-04T16:30:19.135Z,44.16
2022-12-04T16:33:38.310Z,44.25
2022-12-04T16:36:57.594Z,44.17
2022-12-04T16:39:49.122Z,44.10
2022-12-04T16:43:19.260Z,44.15
2022-12-04T16:46:52.564Z,44.23
2022-12-04T16:50:32.839Z,44.28
2022-12-04T16:53:35.947Z,44.21
2022-12-04T16:56:30.804Z,44.15
2022-12-04T16:59:22.605Z,44.03
2022-12-04T17:02:58.585Z,44.19
2022-12-04T17:06:37.100Z,44.23
2022-12-04T17:09:45.290Z,44.07
2022-12-04T17:12:54.477Z,44.26
2022-12-04T17:16:03.140Z,44.17
2022-12-04T17:19:42.712Z,44.09
2022-12-04T17:23:01.630Z,44.19
2022-12-04T17:26:16.630Z,44.17
2022-12-04T17:29:27.018Z,44.10
2022-12-04T17:32:29.068Z,44.01
2022-12-04T17:36:00.760Z,44.08
2022-12-04T17:39:11.976Z,43.96
2022-12-04T17:42:17.159Z,43.90
2022-12-04T17:45:16.207Z,43.86
2022-12-04T17:48:13.907Z,43.96
2022-12-04T17:51:26.737Z,43.80
2022-12-04T17:54:29.036Z,43.96
2022-12-04T17:57:29.021Z,43.90
2022-12-04T18:04:07.807Z,43.72
2022-12-04T18:07:18.461Z,43.92
2022-12-04T18:10:30.828Z,43.98
2022-12-04T18:13:30.532Z,43.91
2022-12-04T18:20:32.363Z,43.94
2022-12-04T18:23:57.435Z,43.87
2022-12-04T18:30:23.159Z,43.63
2022-12-04T18:33:19.214Z,43.89
2022-12-04T18:36:31.526Z,43.84
2022-12-04T18:39:46.201Z,43.74
2022-12-04T18:43:04.250Z,43.78
2022-12-04T18:49:33.009Z,43.88
2022-12-04T18:52:31.663Z,43.77
2022-12-04T18:55:29.447Z,43.79
2022-12-04T19:02:27.691Z,43.82
2022-12-04T19:06:04.887Z,43.89
2022-12-04T19:09:17.975Z,43.82
2022-12-04T19:12:38.578Z,43.84
2022-12-04T19:19:46.829Z,43.83
2022-12-04T19:23:10.879Z,43.77
2022-12-04T19:26:46.740Z,43.85
2022-12-04T19:30:19.256Z,43.96
2022-12-04T19:33:38.640Z,43.80
2022-12-04T19:37:17.868Z,43.84
2022-12-04T19:40:54.187Z,43.83
2022-12-04T19:47:36.391Z,43.76
2022-12-04T19:51:02.476Z,43.80
2022-12-04T19:54:02.721Z,44.04
2022-12-04T19:57:40.258Z,43.74
2022-12-04T20:00:44.657Z,43.94
2022-12-04T20:03:47.343Z,43.94
2022-12-04T20:06:56.490Z,43.88
2022-12-04T20:10:04.970Z,43.87
2022-12-04T20:13:13.311Z,43.80
2022-12-04T20:16:44.035Z,43.80
2022-12-04T20:20:01.567Z,43.91
2022-12-04T20:23:06.589Z,43.94
2022-12-04T20:26:20.277Z,43.93
2022-12-04T20:29:47.905Z,43.86
2022-12-04T20:33:10.306Z,44.01
2022-12-04T20:36:52.050Z,44.20
2022-12-04T20:40:01.830Z,44.12
2022-12-04T20:43:27.935Z,44.17
2022-12-04T20:46:46.301Z,44.18
2022-12-04T20:49:41.950Z,44.28
2022-12-04T20:52:47.527Z,44.38
2022-12-04T20:55:59.216Z,44.50
2022-12-04T20:59:23.531Z,44.50
2022-12-04T21:02:28.721Z,44.66
2022-12-04T21:05:55.859Z,44.49
2022-12-04T21:09:05.491Z,44.71
2022-12-04T21:12:37.393Z,44.65
2022-12-04T21:16:01.869Z,44.75
2022-12-04T21:19:03.707Z,44.79
2022-12-04T21:22:02.424Z,44.67
2022-12-04T21:25:21.403Z,44.58
2022-12-04T21:29:26.675Z,44.70
2022-12-04T21:32:28.411Z,44.70
2022-12-04T21:35:19.144Z,44.81
2022-12-04T21:38:09.496Z,44.68
2022-12-04T21:40:59.963Z,44.84
2022-12-04T21:43:50.363Z,44.70
2022-12-04T21:46:41.579Z,44.78
2022-12-04T21:49:32.140Z,44.70
2022-12-04T21:52:22.470Z,44.55
2022-12-04T21:55:12.833Z,44.88
2022-12-04T21:58:03.287Z,44.73
2022-12-04T22:00:53.845Z,44.70
2022-12-04T22:03:45.018Z,44.89
2022-12-04T22:06:37.029Z,44.90
2022-12-04T22:09:29.359Z,44.80
2022-12-04T22:12:48.036Z,44.69
2022-12-04T22:15:30.553Z,44.76
2022-12-04T22:18:20.900Z,44.82
2022-12-04T22:21:13.217Z,44.74
2022-12-04T22:24:03.246Z,44.94
2022-12-04T22:26:52.639Z,44.86
2022-12-04T22:29:50.193Z,44.91
2022-12-04T22:32:40.474Z,44.84
2022-12-04T22:35:29.899Z,44.93
2022-12-04T22:38:19.351Z,44.76
2022-12-04T22:41:10.797Z,44.94
2022-12-04T22:44:00.091Z,44.92
2022-12-04T22:46:49.564Z,44.98
2022-12-04T22:49:39.392Z,44.94
2022-12-04T22:52:30.938Z,45.02
2022-12-04T22:55:20.284Z,45.03
2022-12-04T22:58:09.625Z,44.96
2022-12-04T23:00:59.534Z,45.03
2022-12-04T23:03:48.931Z,44.99
2022-12-04T23:06:38.306Z,45.10
2022-12-04T23:09:27.973Z,45.05
2022-12-04T23:12:17.321Z,44.95
2022-12-04T23:15:09.104Z,45.04
2022-12-04T23:17:58.478Z,44.99
2022-12-04T23:20:48.217Z,44.98
2022-12-04T23:23:39.059Z,44.90
2022-12-04T23:26:30.139Z,44.98
2022-12-04T23:29:44.694Z,45.06
2022-12-04T23:32:28.862Z,44.95
2022-12-04T23:35:18.319Z,44.99
2022-12-04T23:38:07.575Z,45.10
2022-12-04T23:41:02.005Z,44.98
2022-12-04T23:43:51.696Z,44.94
2022-12-04T23:46:41.073Z,44.89
2022-12-04T23:49:30.435Z,44.83
2022-12-04T23:52:19.671Z,44.99
2022-12-04T23:55:10.021Z,44.85
2022-12-04T23:57:59.273Z,44.92
